Terminal Aerodrome Forecast
Issued by NWS

Home | Current Version | Previous Version | Text Only | Print | Product List | Glossary On
Versions: 1 2 3 4 5 6 7 8 9 10 11 12
678
FTUS42 TJSJ 021741
TAFJBQ
TAF
TJBQ 021741Z 0218/0318 08015KT P6SM VCTS BKN030CB BKN080
     FM022330 12005KT P6SM SCT060
     FM031430 08010KT P6SM VCSH SCT030 SCT040
      AMD NOT SKED 0302/0311=

USA.gov is the U.S. government's official web portal to all federal, state and local government web resources and services.